Portada
METAR-TAF:

METAR-TAF

Aeropuertos :

Shanghái-Pudong, China

Aeropuerto Internacional de Shanghái-Pudong

latitud: 31-07N, longitud: 121-46E, altitud: 4 m

Observación

El informe se hizo hace 36 minutos, a las 08:00 UTC
Viento 10 kt del sur-sureste
Temperatura 27°C
Humedad 51%
Presión 1012 hPa
Visibilidad 10 km o más
sin nubes por debajo de 1500 m y sin presencia de cumulonimbus.

METAR: ZSPD 280800Z 15005MPS CAVOK 27/16 Q1012 NOSIG

Hora: 16:36 (08:36 UTC)

Pronóstico

El informe se hizo hace 5 horas y 8 minutos, a las 03:28 UTC
Pronóstico válido del 28 a las 06 UTC al 29 a las 06 UTC
Viento 8 kt del sur-sureste
Visibilidad: 6000 m
Nubes dispersas a una altura de 2000 ft

TAF: ZSPD 280328Z 2806/2906 16004MPS 6000 SCT020 TX31/2806Z TN19/2821Z

Observaciones y pronósticos meteorológicos de más de 4000 aeropuertos (mensajes METAR y TAF).

Los puntos amarillos y rojos representan las estaciones disponibles.

Ponga el ratón en el punto deseado para ver el nombre de la estación.

Haga clic para ver las observaciones y los pronósticos meteorológicos.

Para cambiar el mapa : haga clic en los botones verdes con una cruz de color negro para hacer un zoom, en el botón verde con un guión para alejar o en las flechas verdes para mapas adyacentes.


METAR-TAF: